Time;durP1;ratioP1;P1;durP2;ratioP2;P2;SDS_P1;SDS_P2;PMS_P1;PMS_P2;Temp;Humidity;BMP_temperature;BMP_pressure;BME280_temperature;BME280_humidity;BME280_pressure;Samples;Min_cycle;Max_cycle;Signal;HPM_P1;HPM_P2
2023/06/03 00:01:21;;;;;;;1.60;1.50;;;;;;;;;;4889657;29;20083;-73
2023/06/03 00:03:49;;;;;;;2.08;1.80;;;;;;;;;;4887237;29;20585;-73
2023/06/03 00:06:16;;;;;;;1.75;1.65;;;;;;;;;;4886684;29;20064;-74
2023/06/03 00:08:44;;;;;;;2.55;1.70;;;;;;;;;;4884648;29;20064;-74
2023/06/03 00:11:13;;;;;;;2.08;1.92;;;;;;;;;;4887295;29;20323;-73
2023/06/03 00:13:40;;;;;;;2.15;1.70;;;;;;;;;;4890217;29;20051;-73
2023/06/03 00:16:08;;;;;;;1.70;1.60;;;;;;;;;;4890901;29;20076;-74
2023/06/03 00:18:35;;;;;;;1.38;1.27;;;;;;;;;;4892245;29;20127;-73
2023/06/03 00:21:04;;;;;;;3.15;1.40;;;;;;;;;;4891249;29;20067;-73
2023/06/03 00:23:31;;;;;;;1.70;1.60;;;;;;;;;;4898299;29;20047;-73
2023/06/03 00:25:59;;;;;;;1.77;1.60;;;;;;;;;;4891855;29;20514;-73
2023/06/03 00:28:26;;;;;;;1.77;1.67;;;;;;;;;;4906349;29;20548;-73
2023/06/03 00:30:54;;;;;;;1.65;1.42;;;;;;;;;;4890133;29;20060;-73
2023/06/03 00:33:21;;;;;;;1.50;1.40;;;;;;;;;;4890513;29;20419;-73
2023/06/03 00:35:49;;;;;;;1.88;1.77;;;;;;;;;;4915253;29;20048;-73
2023/06/03 00:38:16;;;;;;;2.50;1.40;;;;;;;;;;4904405;29;20140;-73
2023/06/03 00:40:45;;;;;;;1.20;1.20;;;;;;;;;;4889287;29;20056;-73
2023/06/03 00:43:13;;;;;;;1.90;1.48;;;;;;;;;;4903616;29;20084;-73
2023/06/03 00:45:40;;;;;;;2.50;1.80;;;;;;;;;;4893340;29;20072;-74
2023/06/03 00:48:08;;;;;;;1.77;1.60;;;;;;;;;;4891574;29;20136;-73
2023/06/03 00:50:35;;;;;;;2.67;1.48;;;;;;;;;;4889893;29;22488;-73
2023/06/03 00:53:03;;;;;;;1.50;1.40;;;;;;;;;;4888523;29;20131;-73
2023/06/03 00:55:32;;;;;;;1.75;1.58;;;;;;;;;;4905971;29;20328;-73
2023/06/03 00:58:01;;;;;;;1.70;1.60;;;;;;;;;;4889809;29;20063;-73
2023/06/03 01:00:28;;;;;;;2.05;1.92;;;;;;;;;;4890800;29;20301;-73
2023/06/03 01:02:56;;;;;;;2.55;1.83;;;;;;;;;;4891757;29;20053;-73
2023/06/03 01:05:23;;;;;;;1.88;1.73;;;;;;;;;;4903768;29;20053;-74
2023/06/03 01:08:00;;;;;;;1.90;1.80;;;;;;;;;;4890870;29;20084;-74
2023/06/03 01:10:39;;;;;;;2.58;1.80;;;;;;;;;;4886907;29;20068;-74
2023/06/03 01:13:20;;;;;;;1.63;1.52;;;;;;;;;;4888963;29;20128;-74
2023/06/03 01:15:50;;;;;;;2.13;1.43;;;;;;;;;;4889026;29;20100;-74
2023/06/03 01:18:18;;;;;;;1.77;1.67;;;;;;;;;;4886805;29;20044;-74
2023/06/03 01:20:48;;;;;;;1.90;1.80;;;;;;;;;;4892205;29;20496;-74
2023/06/03 01:23:20;;;;;;;1.77;1.67;;;;;;;;;;4890485;29;20056;-74
2023/06/03 01:25:50;;;;;;;2.85;2.20;;;;;;;;;;4892440;29;20479;-74
2023/06/03 01:28:23;;;;;;;2.42;2.22;;;;;;;;;;4898155;29;20072;-74
2023/06/03 01:30:51;;;;;;;2.15;1.80;;;;;;;;;;4890184;29;20056;-74
2023/06/03 01:33:20;;;;;;;2.30;2.10;;;;;;;;;;4903125;29;20495;-74
2023/06/03 01:35:48;;;;;;;2.30;2.17;;;;;;;;;;4905494;29;20282;-74
2023/06/03 01:38:16;;;;;;;3.00;2.22;;;;;;;;;;4892096;29;20056;-73
2023/06/03 01:40:45;;;;;;;2.60;2.10;;;;;;;;;;4905590;29;20518;-74
2023/06/03 01:43:14;;;;;;;3.25;2.50;;;;;;;;;;4886541;29;20053;-73
2023/06/03 01:45:42;;;;;;;3.17;2.20;;;;;;;;;;4889129;29;20045;-73
2023/06/03 01:48:10;;;;;;;3.05;2.03;;;;;;;;;;4901580;29;20500;-74
2023/06/03 01:50:41;;;;;;;2.75;2.38;;;;;;;;;;4893585;29;20043;-73
2023/06/03 01:53:09;;;;;;;2.65;2.45;;;;;;;;;;4889962;29;20060;-74
2023/06/03 01:55:40;;;;;;;2.35;2.15;;;;;;;;;;4890883;29;20054;-74
2023/06/03 01:58:10;;;;;;;2.00;1.90;;;;;;;;;;4901580;29;20037;-74
2023/06/03 02:00:38;;;;;;;2.30;2.10;;;;;;;;;;4885134;29;20448;-73
2023/06/03 02:03:09;;;;;;;5.18;2.40;;;;;;;;;;4899629;29;20052;-74
2023/06/03 02:05:43;;;;;;;3.65;2.30;;;;;;;;;;4889804;29;20484;-73
2023/06/03 02:08:13;;;;;;;2.65;2.45;;;;;;;;;;4888744;29;20079;-74
2023/06/03 02:10:41;;;;;;;2.35;2.15;;;;;;;;;;4891634;29;20626;-74
2023/06/03 02:13:08;;;;;;;2.45;2.28;;;;;;;;;;4889051;29;20123;-74
2023/06/03 02:15:38;;;;;;;4.82;2.53;;;;;;;;;;4885577;29;20055;-73
2023/06/03 02:18:06;;;;;;;2.97;2.65;;;;;;;;;;4902766;29;20254;-74
2023/06/03 02:20:33;;;;;;;2.58;2.33;;;;;;;;;;4885356;29;20067;-73
2023/06/03 02:23:02;;;;;;;3.08;2.78;;;;;;;;;;4888549;29;20049;-73
2023/06/03 02:25:29;;;;;;;3.30;3.03;;;;;;;;;;4888935;29;20052;-73
2023/06/03 02:27:58;;;;;;;3.20;2.90;;;;;;;;;;4888414;29;20511;-74
2023/06/03 02:30:25;;;;;;;5.10;3.00;;;;;;;;;;4887033;29;20497;-73
2023/06/03 02:32:53;;;;;;;3.55;2.85;;;;;;;;;;4886282;29;20137;-74
2023/06/03 02:35:21;;;;;;;2.92;2.72;;;;;;;;;;4886645;29;20423;-74
2023/06/03 02:37:48;;;;;;;2.92;2.63;;;;;;;;;;4887436;29;20137;-74
2023/06/03 02:40:16;;;;;;;3.30;3.00;;;;;;;;;;4902308;29;20049;-74
2023/06/03 02:42:44;;;;;;;2.97;2.67;;;;;;;;;;4885358;29;20063;-75
2023/06/03 02:45:11;;;;;;;3.28;2.97;;;;;;;;;;4886476;29;20440;-74
2023/06/03 02:47:39;;;;;;;2.53;2.33;;;;;;;;;;4888472;29;20045;-74
2023/06/03 02:50:07;;;;;;;2.80;2.60;;;;;;;;;;4886013;29;20048;-74
2023/06/03 02:52:35;;;;;;;2.67;2.58;;;;;;;;;;4897925;29;20254;-74
2023/06/03 02:55:04;;;;;;;2.30;2.20;;;;;;;;;;4884970;29;20480;-73
2023/06/03 02:57:32;;;;;;;3.28;2.53;;;;;;;;;;4902924;29;20507;-74
2023/06/03 02:59:59;;;;;;;2.70;2.50;;;;;;;;;;4883420;29;20531;-74
2023/06/03 03:02:27;;;;;;;2.72;2.53;;;;;;;;;;4887976;29;20048;-74
2023/06/03 03:04:54;;;;;;;3.65;2.47;;;;;;;;;;4912432;29;20529;-74
2023/06/03 03:07:26;;;;;;;2.58;2.35;;;;;;;;;;4905056;29;20412;-73
2023/06/03 03:09:54;;;;;;;5.40;2.83;;;;;;;;;;4902969;29;20438;-73
2023/06/03 03:12:22;;;;;;;2.65;2.45;;;;;;;;;;4903261;29;20045;-74
2023/06/03 03:14:50;;;;;;;4.05;2.60;;;;;;;;;;4903910;29;20056;-74
2023/06/03 03:17:18;;;;;;;2.40;2.20;;;;;;;;;;4911554;29;20041;-74
2023/06/03 03:19:46;;;;;;;2.53;2.28;;;;;;;;;;4901577;29;20049;-73
2023/06/03 03:22:14;;;;;;;4.07;3.08;;;;;;;;;;4887873;29;20135;-74
2023/06/03 03:24:42;;;;;;;2.60;2.40;;;;;;;;;;4901258;29;20147;-74
2023/06/03 03:27:10;;;;;;;3.38;2.63;;;;;;;;;;4904022;29;20053;-74
2023/06/03 03:29:44;;;;;;;2.60;2.50;;;;;;;;;;4900550;29;20048;-73
2023/06/03 03:32:13;;;;;;;3.15;2.75;;;;;;;;;;4903986;29;20052;-74
2023/06/03 03:34:49;;;;;;;2.05;1.95;;;;;;;;;;4884817;29;20048;-74
2023/06/03 03:37:17;;;;;;;2.60;2.40;;;;;;;;;;4887022;29;20392;-74
2023/06/03 03:39:46;;;;;;;3.03;2.80;;;;;;;;;;4887211;29;20064;-74
2023/06/03 03:42:14;;;;;;;3.70;2.80;;;;;;;;;;4887358;29;20057;-74
2023/06/03 03:44:42;;;;;;;2.88;2.63;;;;;;;;;;4900253;29;20151;-74
2023/06/03 03:47:10;;;;;;;2.35;2.20;;;;;;;;;;4885927;29;20048;-74
2023/06/03 03:49:39;;;;;;;2.88;2.28;;;;;;;;;;4905602;29;20049;-74
2023/06/03 03:52:13;;;;;;;3.55;2.83;;;;;;;;;;4891650;29;20152;-74
2023/06/03 03:54:45;;;;;;;2.75;2.33;;;;;;;;;;4889887;29;20131;-74
2023/06/03 03:57:16;;;;;;;2.40;2.20;;;;;;;;;;4905920;29;20463;-73
2023/06/03 03:59:49;;;;;;;2.13;2.03;;;;;;;;;;4910992;29;20502;-74
2023/06/03 04:02:20;;;;;;;2.83;2.63;;;;;;;;;;4891584;29;20562;-74
2023/06/03 04:04:48;;;;;;;2.80;2.60;;;;;;;;;;4904780;29;20044;-74
2023/06/03 04:07:20;;;;;;;2.20;2.10;;;;;;;;;;4906946;29;20400;-74
2023/06/03 04:09:48;;;;;;;2.45;2.25;;;;;;;;;;4905461;29;20051;-74
2023/06/03 04:12:17;;;;;;;2.58;2.38;;;;;;;;;;4906090;29;20088;-73
2023/06/03 04:14:49;;;;;;;2.65;2.45;;;;;;;;;;4882884;29;20052;-73
2023/06/03 04:17:21;;;;;;;4.53;2.50;;;;;;;;;;4907783;29;20044;-74
2023/06/03 04:19:48;;;;;;;2.65;2.53;;;;;;;;;;4886687;29;20917;-74
2023/06/03 04:22:21;;;;;;;2.35;2.25;;;;;;;;;;4903474;29;20505;-74
2023/06/03 04:25:09;;;;;;;2.70;2.50;;;;;;;;;;4891668;29;20408;-74
2023/06/03 04:27:48;;;;;;;3.05;2.85;;;;;;;;;;4888242;29;20044;-74
2023/06/03 04:30:17;;;;;;;2.20;2.10;;;;;;;;;;4900632;29;20051;-74
2023/06/03 04:32:45;;;;;;;1.98;1.88;;;;;;;;;;4899759;29;20095;-74
2023/06/03 04:35:13;;;;;;;2.60;2.40;;;;;;;;;;4889740;29;20518;-74
2023/06/03 04:37:43;;;;;;;2.50;2.30;;;;;;;;;;4888249;29;20459;-74
2023/06/03 04:40:14;;;;;;;2.20;2.10;;;;;;;;;;4903524;29;20318;-74
2023/06/03 04:42:46;;;;;;;2.40;2.20;;;;;;;;;;4881886;29;20071;-74
2023/06/03 04:45:14;;;;;;;2.40;2.20;;;;;;;;;;4886564;29;20597;-74
2023/06/03 04:47:42;;;;;;;2.60;2.40;;;;;;;;;;4901221;29;20044;-75
2023/06/03 04:50:17;;;;;;;3.00;2.80;;;;;;;;;;4887919;29;20048;-74
2023/06/03 04:52:45;;;;;;;2.50;2.30;;;;;;;;;;4903368;29;20507;-74
2023/06/03 04:55:13;;;;;;;2.80;2.60;;;;;;;;;;4881026;29;20135;-74
2023/06/03 04:57:46;;;;;;;2.58;2.38;;;;;;;;;;4898897;29;20068;-74
2023/06/03 05:00:19;;;;;;;2.40;2.20;;;;;;;;;;4905345;29;20072;-74
2023/06/03 05:02:56;;;;;;;3.20;2.50;;;;;;;;;;4881385;29;20390;-73
2023/06/03 05:05:28;;;;;;;2.92;2.63;;;;;;;;;;4901266;29;20321;-74
2023/06/03 05:07:56;;;;;;;2.10;2.00;;;;;;;;;;4882273;29;20575;-74
2023/06/03 05:10:24;;;;;;;2.35;2.13;;;;;;;;;;4886540;29;20417;-74
2023/06/03 05:12:53;;;;;;;2.10;2.00;;;;;;;;;;4905455;29;20508;-75
2023/06/03 05:15:21;;;;;;;2.28;2.08;;;;;;;;;;4889541;29;20052;-74
2023/06/03 05:17:49;;;;;;;2.05;1.95;;;;;;;;;;4892174;29;20081;-75
2023/06/03 05:20:17;;;;;;;2.28;1.90;;;;;;;;;;4885052;29;20048;-75
2023/06/03 05:22:44;;;;;;;2.22;2.03;;;;;;;;;;4881383;29;20100;-74
2023/06/03 05:25:12;;;;;;;1.90;1.80;;;;;;;;;;4898538;29;20427;-74
2023/06/03 05:27:40;;;;;;;1.75;1.65;;;;;;;;;;4897787;29;20049;-74
2023/06/03 05:30:15;;;;;;;2.17;1.95;;;;;;;;;;4898327;29;20127;-75
2023/06/03 05:32:42;;;;;;;1.70;1.60;;;;;;;;;;4885635;29;20571;-75
2023/06/03 05:35:10;;;;;;;2.42;2.00;;;;;;;;;;4899614;29;20070;-74
2023/06/03 05:37:38;;;;;;;1.60;1.50;;;;;;;;;;4896335;29;20447;-75
2023/06/03 05:40:06;;;;;;;1.73;1.63;;;;;;;;;;4896774;29;20463;-75
2023/06/03 05:42:39;;;;;;;1.50;1.40;;;;;;;;;;4881344;29;20087;-75
2023/06/03 05:45:07;;;;;;;1.60;1.50;;;;;;;;;;4876283;29;20703;-74
2023/06/03 05:47:35;;;;;;;1.50;1.40;;;;;;;;;;4878250;29;20045;-75
2023/06/03 05:50:02;;;;;;;2.35;1.60;;;;;;;;;;4882486;29;20052;-75
2023/06/03 05:52:30;;;;;;;1.73;1.63;;;;;;;;;;4893818;29;20052;-75
2023/06/03 05:54:58;;;;;;;1.70;1.60;;;;;;;;;;4884391;29;20879;-75
2023/06/03 05:57:25;;;;;;;3.08;1.70;;;;;;;;;;4882077;29;20923;-75
2023/06/03 05:59:53;;;;;;;1.73;1.55;;;;;;;;;;4878689;29;20063;-75
2023/06/03 06:02:20;;;;;;;3.00;1.90;;;;;;;;;;4879374;29;20110;-75
2023/06/03 06:04:48;;;;;;;1.77;1.67;;;;;;;;;;4894284;29;20088;-75
2023/06/03 06:07:17;;;;;;;1.60;1.48;;;;;;;;;;4883269;29;20049;-75
2023/06/03 06:09:44;;;;;;;1.63;1.52;;;;;;;;;;4885591;29;20044;-75
2023/06/03 06:12:12;;;;;;;2.95;1.55;;;;;;;;;;4884169;29;20111;-75
2023/06/03 06:14:40;;;;;;;1.48;1.38;;;;;;;;;;4895704;29;20044;-75
2023/06/03 06:17:10;;;;;;;1.40;1.30;;;;;;;;;;4881465;29;20053;-75
2023/06/03 06:19:38;;;;;;;1.50;1.50;;;;;;;;;;4882792;29;20045;-75
2023/06/03 06:22:06;;;;;;;2.08;1.90;;;;;;;;;;4879557;29;20144;-75
2023/06/03 06:24:34;;;;;;;1.75;1.65;;;;;;;;;;4897998;29;20075;-75
2023/06/03 06:27:04;;;;;;;2.03;1.92;;;;;;;;;;4882632;29;20044;-75
2023/06/03 06:29:32;;;;;;;3.15;1.50;;;;;;;;;;4895691;29;20041;-76
2023/06/03 06:32:01;;;;;;;1.85;1.75;;;;;;;;;;4903455;29;20052;-75
2023/06/03 06:34:31;;;;;;;1.92;1.50;;;;;;;;;;4897476;29;20111;-75
2023/06/03 06:36:59;;;;;;;1.60;1.50;;;;;;;;;;4890895;29;20088;-75
2023/06/03 06:39:34;;;;;;;1.40;1.30;;;;;;;;;;4900168;29;20052;-75
2023/06/03 06:42:15;;;;;;;3.80;1.55;;;;;;;;;;4888300;29;20290;-75
2023/06/03 06:44:50;;;;;;;2.63;1.80;;;;;;;;;;4886102;29;20127;-75
2023/06/03 06:47:24;;;;;;;1.73;1.52;;;;;;;;;;4906126;29;20049;-75
2023/06/03 06:49:57;;;;;;;2.25;1.80;;;;;;;;;;4898561;29;20049;-75
2023/06/03 06:52:27;;;;;;;1.65;1.55;;;;;;;;;;4886488;29;20047;-75
2023/06/03 06:54:56;;;;;;;1.40;1.30;;;;;;;;;;4885892;29;20083;-75
2023/06/03 06:57:25;;;;;;;1.63;1.52;;;;;;;;;;4884471;29;20045;-75
2023/06/03 06:59:53;;;;;;;3.10;1.60;;;;;;;;;;4899505;29;20080;-75
2023/06/03 07:02:21;;;;;;;1.55;1.45;;;;;;;;;;4881342;29;20055;-75
2023/06/03 07:04:50;;;;;;;1.67;1.58;;;;;;;;;;4886760;29;20196;-77
2023/06/03 07:07:18;;;;;;;1.70;1.60;;;;;;;;;;4881447;29;20135;-75
2023/06/03 07:09:47;;;;;;;1.10;1.10;;;;;;;;;;4901221;29;20049;-75
2023/06/03 07:12:16;;;;;;;1.90;1.45;;;;;;;;;;4891969;29;20139;-75
2023/06/03 07:14:44;;;;;;;1.60;1.50;;;;;;;;;;4900686;29;20048;-75
2023/06/03 07:17:11;;;;;;;1.30;1.30;;;;;;;;;;4892780;29;20080;-75
2023/06/03 07:19:39;;;;;;;3.78;2.38;;;;;;;;;;4894836;29;20143;-76
2023/06/03 07:22:10;;;;;;;2.88;1.70;;;;;;;;;;4880384;29;20056;-75
2023/06/03 07:24:40;;;;;;;3.78;2.00;;;;;;;;;;4892790;29;20201;-74
2023/06/03 07:27:08;;;;;;;3.08;1.95;;;;;;;;;;4885560;29;20124;-75
2023/06/03 07:29:38;;;;;;;1.80;1.70;;;;;;;;;;4888541;29;20053;-75
2023/06/03 07:32:08;;;;;;;1.65;1.55;;;;;;;;;;4904209;29;20052;-76
2023/06/03 07:34:37;;;;;;;3.13;1.70;;;;;;;;;;4888737;29;20061;-75
2023/06/03 07:37:09;;;;;;;1.80;1.70;;;;;;;;;;4898036;29;20251;-75
2023/06/03 07:39:37;;;;;;;2.42;1.75;;;;;;;;;;4890689;29;20178;-75
2023/06/03 07:42:15;;;;;;;2.50;1.90;;;;;;;;;;4906167;29;20434;-75
2023/06/03 07:44:49;;;;;;;1.55;1.48;;;;;;;;;;4898873;29;20563;-75
2023/06/03 07:47:17;;;;;;;1.85;1.60;;;;;;;;;;4890594;29;20068;-76
2023/06/03 07:49:48;;;;;;;1.42;1.33;;;;;;;;;;4886388;29;20118;-76
2023/06/03 07:52:18;;;;;;;2.42;1.30;;;;;;;;;;4891135;29;20056;-75
2023/06/03 07:54:45;;;;;;;1.40;1.30;;;;;;;;;;4888713;29;20045;-75
2023/06/03 07:57:13;;;;;;;1.55;1.45;;;;;;;;;;4892101;29;20048;-75
2023/06/03 07:59:59;;;;;;;1.50;1.40;;;;;;;;;;4889735;29;20056;-76
2023/06/03 08:02:26;;;;;;;2.05;1.50;;;;;;;;;;4881944;29;20052;-75
2023/06/03 08:05:00;;;;;;;1.75;1.65;;;;;;;;;;4887945;29;20080;-75
2023/06/03 08:07:29;;;;;;;2.60;1.30;;;;;;;;;;4880814;29;20049;-75
2023/06/03 08:09:56;;;;;;;1.33;1.23;;;;;;;;;;4885574;29;20075;-76
2023/06/03 08:12:29;;;;;;;1.30;1.20;;;;;;;;;;4889480;29;20058;-76
2023/06/03 08:15:04;;;;;;;2.28;1.20;;;;;;;;;;4891533;29;20065;-75
2023/06/03 08:17:49;;;;;;;1.73;1.60;;;;;;;;;;4888598;29;20131;-75
2023/06/03 08:20:17;;;;;;;1.70;1.40;;;;;;;;;;4902434;29;20056;-75
2023/06/03 08:22:44;;;;;;;2.47;1.50;;;;;;;;;;4910990;29;20052;-77
2023/06/03 08:25:13;;;;;;;1.42;1.33;;;;;;;;;;4906778;29;20079;-76
2023/06/03 08:27:41;;;;;;;1.55;1.45;;;;;;;;;;4911885;29;20430;-76
2023/06/03 08:30:09;;;;;;;1.60;1.52;;;;;;;;;;4940806;28;20044;-76
2023/06/03 08:32:39;;;;;;;1.13;1.13;;;;;;;;;;4906461;29;20429;-75
2023/06/03 08:35:10;;;;;;;1.85;1.50;;;;;;;;;;4909915;29;20138;-77
2023/06/03 08:37:38;;;;;;;1.45;1.35;;;;;;;;;;4913658;29;20493;-76
2023/06/03 08:40:09;;;;;;;1.35;1.20;;;;;;;;;;4928148;29;20059;-76
2023/06/03 08:42:41;;;;;;;3.88;1.58;;;;;;;;;;4910497;29;20048;-76
2023/06/03 08:45:12;;;;;;;2.15;1.50;;;;;;;;;;4915168;29;20047;-76
2023/06/03 08:47:59;;;;;;;2.97;1.50;;;;;;;;;;4923882;29;20043;-77
2023/06/03 08:50:28;;;;;;;2.75;1.70;;;;;;;;;;4920338;29;20048;-76
2023/06/03 08:52:56;;;;;;;1.50;1.40;;;;;;;;;;4912959;29;20059;-77
2023/06/03 08:55:24;;;;;;;2.00;1.90;;;;;;;;;;4911051;29;20485;-76
2023/06/03 08:58:14;;;;;;;2.08;1.20;;;;;;;;;;4904907;29;20052;-76
2023/06/03 09:00:44;;;;;;;1.75;1.30;;;;;;;;;;4910741;29;20063;-77
2023/06/03 09:03:12;;;;;;;1.40;1.30;;;;;;;;;;4907938;29;20052;-76
2023/06/03 09:05:40;;;;;;;1.80;1.58;;;;;;;;;;4908415;29;20077;-76
2023/06/03 09:08:08;;;;;;;1.80;1.70;;;;;;;;;;4904547;29;20052;-77
2023/06/03 09:10:36;;;;;;;2.30;1.63;;;;;;;;;;4897443;29;20058;-76
2023/06/03 09:13:05;;;;;;;2.05;1.48;;;;;;;;;;4903763;29;20054;-76
2023/06/03 09:15:32;;;;;;;2.78;1.45;;;;;;;;;;4899327;29;20047;-76
2023/06/03 09:17:59;;;;;;;2.40;1.25;;;;;;;;;;4901761;29;20314;-76
2023/06/03 09:20:27;;;;;;;1.10;1.10;;;;;;;;;;4926895;28;20047;-76
2023/06/03 09:22:56;;;;;;;1.50;1.40;;;;;;;;;;4895879;29;20044;-76
2023/06/03 09:25:23;;;;;;;4.35;1.40;;;;;;;;;;4899656;29;20411;-76
2023/06/03 09:27:51;;;;;;;1.30;1.20;;;;;;;;;;4903712;29;20547;-76
2023/06/03 09:30:18;;;;;;;1.58;1.40;;;;;;;;;;4901126;29;20048;-77
2023/06/03 09:32:46;;;;;;;1.73;1.63;;;;;;;;;;4902398;29;20344;-76
2023/06/03 09:35:14;;;;;;;1.65;1.50;;;;;;;;;;4906731;29;20054;-75
2023/06/03 09:37:57;;;;;;;1.40;1.30;;;;;;;;;;4907975;29;20115;-76
2023/06/03 09:40:26;;;;;;;3.40;1.25;;;;;;;;;;4908179;29;20060;-76
2023/06/03 09:42:53;;;;;;;1.50;1.40;;;;;;;;;;4908584;29;20497;-76
2023/06/03 09:45:35;;;;;;;1.60;1.50;;;;;;;;;;4900532;29;21831;-76
2023/06/03 09:48:03;;;;;;;1.63;1.52;;;;;;;;;;4906237;29;20542;-76
2023/06/03 09:50:31;;;;;;;2.30;1.60;;;;;;;;;;4903695;29;20056;-75
2023/06/03 09:52:59;;;;;;;1.50;1.40;;;;;;;;;;4908278;28;20155;-76
2023/06/03 09:55:32;;;;;;;2.58;1.60;;;;;;;;;;4916070;29;20107;-77
2023/06/03 09:58:04;;;;;;;1.77;1.35;;;;;;;;;;4908478;29;20052;-78
2023/06/03 10:00:32;;;;;;;;;;;;;;;;;;4897041;29;20069;-76
2023/06/03 10:03:07;;;;;;;1.20;1.10;;;;;;;;;;4904773;29;19931;-77
2023/06/03 10:05:36;;;;;;;1.52;1.40;;;;;;;;;;4908350;29;20051;-77
2023/06/03 10:08:06;;;;;;;1.30;1.20;;;;;;;;;;4906771;29;20075;-76
2023/06/03 10:10:33;;;;;;;1.60;1.50;;;;;;;;;;4905620;29;20056;-76
2023/06/03 10:13:23;;;;;;;1.75;1.65;;;;;;;;;;4904228;29;20062;-76
2023/06/03 10:15:52;;;;;;;1.40;1.30;;;;;;;;;;4898944;29;20040;-77
2023/06/03 10:18:38;;;;;;;5.05;1.52;;;;;;;;;;4905981;29;20481;-77
2023/06/03 10:21:13;;;;;;;1.73;1.60;;;;;;;;;;4929788;28;20056;-77
2023/06/03 10:23:42;;;;;;;1.75;1.33;;;;;;;;;;4904263;29;20269;-77
2023/06/03 10:26:10;;;;;;;1.63;1.52;;;;;;;;;;4906438;29;20063;-76
2023/06/03 10:28:38;;;;;;;1.23;1.23;;;;;;;;;;4906369;29;20509;-76
2023/06/03 10:31:07;;;;;;;1.40;1.30;;;;;;;;;;4903358;29;20048;-76
2023/06/03 10:33:37;;;;;;;1.23;1.20;;;;;;;;;;4911009;29;20054;-77
2023/06/03 10:36:06;;;;;;;1.60;1.50;;;;;;;;;;4908298;29;20293;-77
2023/06/03 10:38:34;;;;;;;2.17;1.52;;;;;;;;;;4901647;29;20052;-77
2023/06/03 10:41:01;;;;;;;1.35;1.25;;;;;;;;;;4906264;29;20535;-77
2023/06/03 10:43:31;;;;;;;1.40;1.30;;;;;;;;;;4904605;29;20095;-77
2023/06/03 10:46:00;;;;;;;1.58;1.48;;;;;;;;;;4909519;29;20044;-77
2023/06/03 10:48:28;;;;;;;1.60;1.50;;;;;;;;;;4906979;29;20150;-76
2023/06/03 10:51:16;;;;;;;1.55;1.40;;;;;;;;;;4897998;29;20519;-78
2023/06/03 10:54:04;;;;;;;1.48;1.38;;;;;;;;;;4899365;29;21324;-77
2023/06/03 10:56:37;;;;;;;1.40;1.30;;;;;;;;;;4900450;29;20052;-77
2023/06/03 10:59:07;;;;;;;1.40;1.30;;;;;;;;;;4908441;29;20714;-78
2023/06/03 11:01:53;;;;;;;1.58;1.48;;;;;;;;;;4916232;29;20430;-77
2023/06/03 11:04:21;;;;;;;1.27;1.23;;;;;;;;;;4899736;29;20576;-75
2023/06/03 11:06:48;;;;;;;2.60;1.50;;;;;;;;;;4902319;29;20168;-76
2023/06/03 11:09:29;;;;;;;1.95;1.35;;;;;;;;;;4895805;29;20044;-76
2023/06/03 11:12:05;;;;;;;1.30;1.30;;;;;;;;;;4894450;29;20111;-76
2023/06/03 11:14:41;;;;;;;1.45;1.35;;;;;;;;;;4901803;29;20052;-76
2023/06/03 11:17:10;;;;;;;1.50;1.40;;;;;;;;;;4908245;29;20072;-77
2023/06/03 11:19:51;;;;;;;1.65;1.55;;;;;;;;;;4905014;29;20168;-76
2023/06/03 11:22:27;;;;;;;2.25;1.20;;;;;;;;;;4908128;29;20386;-77
2023/06/03 11:24:59;;;;;;;1.55;1.45;;;;;;;;;;4911391;29;20055;-76
2023/06/03 11:27:28;;;;;;;1.27;1.20;;;;;;;;;;4903901;29;20040;-76
2023/06/03 11:29:57;;;;;;;1.42;1.33;;;;;;;;;;4892209;29;20055;-76
2023/06/03 11:32:25;;;;;;;1.48;1.38;;;;;;;;;;4903593;29;20048;-77
2023/06/03 11:34:59;;;;;;;1.40;1.30;;;;;;;;;;4902358;29;20063;-76
2023/06/03 11:37:46;;;;;;;1.48;1.40;;;;;;;;;;4922210;29;20075;-77
2023/06/03 11:40:18;;;;;;;1.30;1.30;;;;;;;;;;4899399;29;20063;-77
2023/06/03 11:42:47;;;;;;;1.40;1.30;;;;;;;;;;4898978;29;20052;-76
2023/06/03 11:45:18;;;;;;;1.08;1.08;;;;;;;;;;4893101;29;20664;-77
2023/06/03 11:48:04;;;;;;;1.73;1.00;;;;;;;;;;4905175;29;20123;-77
2023/06/03 11:50:46;;;;;;;1.40;1.30;;;;;;;;;;4917419;29;20044;-77
2023/06/03 11:53:30;;;;;;;1.38;1.27;;;;;;;;;;4903632;29;20063;-77
2023/06/03 11:56:08;;;;;;;2.08;1.40;;;;;;;;;;4896565;29;20518;-77
2023/06/03 11:58:39;;;;;;;;;;;;;;;;;;4898203;29;20056;-77
2023/06/03 12:01:16;;;;;;;1.50;1.40;;;;;;;;;;4897555;29;19966;-77
2023/06/03 12:04:02;;;;;;;1.45;1.35;;;;;;;;;;4900243;29;20044;-77
2023/06/03 12:06:35;;;;;;;0.90;0.90;;;;;;;;;;4915207;29;20124;-77
2023/06/03 12:09:04;;;;;;;1.17;1.13;;;;;;;;;;4910299;29;20048;-77
2023/06/03 12:11:33;;;;;;;1.27;1.00;;;;;;;;;;4908650;29;20044;-76
2023/06/03 12:14:00;;;;;;;1.30;1.20;;;;;;;;;;4910472;29;20083;-77
2023/06/03 12:16:32;;;;;;;1.40;1.30;;;;;;;;;;4906797;29;20052;-77
2023/06/03 12:19:01;;;;;;;1.20;1.20;;;;;;;;;;4907222;29;20071;-77
2023/06/03 12:21:29;;;;;;;1.38;1.30;;;;;;;;;;4909099;29;20091;-76
2023/06/03 12:23:56;;;;;;;1.48;1.38;;;;;;;;;;4907016;29;20040;-76
2023/06/03 12:26:25;;;;;;;1.40;1.30;;;;;;;;;;4907548;29;20044;-76
2023/06/03 12:28:54;;;;;;;0.95;0.95;;;;;;;;;;4907857;29;20044;-77
2023/06/03 12:31:22;;;;;;;1.05;1.05;;;;;;;;;;4908199;29;20048;-76
2023/06/03 12:33:51;;;;;;;1.27;1.20;;;;;;;;;;4911979;29;20083;-77
2023/06/03 12:36:22;;;;;;;1.30;1.30;;;;;;;;;;4902483;29;20056;-76
2023/06/03 12:38:56;;;;;;;1.27;1.25;;;;;;;;;;4908161;29;20145;-76
2023/06/03 12:41:25;;;;;;;1.20;1.20;;;;;;;;;;4908664;29;20085;-76
2023/06/03 12:44:02;;;;;;;1.45;1.23;;;;;;;;;;4905419;28;20100;-76
2023/06/03 12:46:30;;;;;;;1.27;1.27;;;;;;;;;;4905597;29;20127;-77
2023/06/03 12:49:12;;;;;;;1.15;1.15;;;;;;;;;;4907287;28;20495;-77
2023/06/03 12:51:39;;;;;;;1.33;1.23;;;;;;;;;;4906443;29;20053;-77
2023/06/03 12:54:07;;;;;;;1.10;1.10;;;;;;;;;;4907306;29;20064;-77
2023/06/03 12:56:34;;;;;;;1.17;1.17;;;;;;;;;;4906981;29;20076;-77
2023/06/03 12:59:03;;;;;;;1.00;1.00;;;;;;;;;;4938233;28;20830;-76
2023/06/03 13:01:31;;;;;;;1.13;1.13;;;;;;;;;;4906834;29;20059;-77
2023/06/03 13:03:58;;;;;;;1.00;1.00;;;;;;;;;;4910000;29;20550;-78
2023/06/03 13:06:26;;;;;;;1.33;1.23;;;;;;;;;;4911156;29;20048;-77
2023/06/03 13:08:53;;;;;;;1.10;1.00;;;;;;;;;;4906815;29;20679;-76
2023/06/03 13:11:21;;;;;;;1.15;1.15;;;;;;;;;;4910633;29;20048;-77
2023/06/03 13:13:49;;;;;;;1.25;1.20;;;;;;;;;;4910803;29;20503;-77
2023/06/03 13:16:16;;;;;;;1.00;1.00;;;;;;;;;;4910355;29;20060;-77
2023/06/03 13:18:44;;;;;;;1.40;1.30;;;;;;;;;;4910891;29;20494;-76
2023/06/03 13:21:12;;;;;;;2.38;1.40;;;;;;;;;;4910399;29;20451;-76
2023/06/03 13:23:39;;;;;;;1.00;1.00;;;;;;;;;;4923980;29;20052;-77
2023/06/03 13:26:07;;;;;;;1.30;1.02;;;;;;;;;;4909495;29;20431;-76
2023/06/03 13:28:37;;;;;;;1.15;1.15;;;;;;;;;;4904707;29;20166;-76
2023/06/03 13:31:04;;;;;;;1.08;1.08;;;;;;;;;;4916655;29;20059;-76
2023/06/03 13:33:32;;;;;;;1.20;1.10;;;;;;;;;;4910730;29;20115;-76
2023/06/03 13:36:00;;;;;;;1.20;1.05;;;;;;;;;;4908265;29;20542;-76
2023/06/03 13:38:27;;;;;;;1.08;1.08;;;;;;;;;;4907783;29;20383;-77
2023/06/03 13:40:55;;;;;;;0.95;0.90;;;;;;;;;;4908790;29;20052;-76
2023/06/03 13:43:22;;;;;;;1.20;1.20;;;;;;;;;;4910388;29;20059;-77
2023/06/03 13:45:50;;;;;;;1.55;1.40;;;;;;;;;;4911104;29;20047;-77
2023/06/03 13:48:17;;;;;;;0.90;0.90;;;;;;;;;;4915612;29;20047;-76
2023/06/03 13:50:45;;;;;;;0.90;0.90;;;;;;;;;;4908215;29;20328;-76
2023/06/03 13:53:12;;;;;;;1.95;1.85;;;;;;;;;;4911144;29;20092;-76
2023/06/03 13:55:40;;;;;;;1.20;1.05;;;;;;;;;;4909092;29;20048;-76
2023/06/03 13:58:08;;;;;;;1.10;1.10;;;;;;;;;;4915282;29;20499;-76
2023/06/03 14:00:35;;;;;;;1.40;1.00;;;;;;;;;;4907691;29;20040;-76
2023/06/03 14:03:04;;;;;;;1.40;1.30;;;;;;;;;;4910883;29;20103;-76
2023/06/03 14:05:32;;;;;;;1.20;1.20;;;;;;;;;;4905109;29;20182;-77
2023/06/03 14:07:59;;;;;;;0.90;0.90;;;;;;;;;;4909031;29;20346;-76
2023/06/03 14:10:27;;;;;;;1.13;1.10;;;;;;;;;;4910949;29;20045;-76
2023/06/03 14:12:54;;;;;;;1.35;1.25;;;;;;;;;;4916969;29;20529;-76
2023/06/03 14:15:22;;;;;;;1.00;1.00;;;;;;;;;;4951129;23;20108;-90
2023/06/03 14:17:59;;;;;;;1.10;1.00;;;;;;;;;;4962492;28;20055;-89
2023/06/03 14:20:29;;;;;;;1.20;1.10;;;;;;;;;;4949138;28;20059;-85
2023/06/03 14:23:01;;;;;;;1.33;1.20;;;;;;;;;;4959579;28;20501;-88
2023/06/03 14:25:30;;;;;;;0.93;0.90;;;;;;;;;;4961237;28;20925;-89
2023/06/03 14:28:02;;;;;;;1.10;1.00;;;;;;;;;;4951903;28;20078;-87
2023/06/03 14:30:30;;;;;;;1.20;1.10;;;;;;;;;;4980232;28;20437;-87
2023/06/03 14:33:44;;;;;;;1.35;1.25;;;;;;;;;;4960516;28;20039;-91
2023/06/03 14:36:13;;;;;;;0.90;0.90;;;;;;;;;;4950584;28;20047;-87
2023/06/03 14:38:44;;;;;;;;;;;;;;;;;;4968598;28;20130;-87
2023/06/03 14:41:12;;;;;;;0.80;0.80;;;;;;;;;;4978411;28;19949;-88
2023/06/03 14:43:42;;;;;;;1.45;1.20;;;;;;;;;;4973339;28;20110;-89
2023/06/03 14:46:10;;;;;;;1.02;1.00;;;;;;;;;;4961893;28;20053;-88
2023/06/03 14:48:38;;;;;;;1.35;0.90;;;;;;;;;;4967892;28;20136;-88
2023/06/03 14:51:12;;;;;;;1.10;1.10;;;;;;;;;;4959036;28;20142;-87
2023/06/03 14:53:43;;;;;;;0.90;0.90;;;;;;;;;;4955226;28;20097;-89
2023/06/03 14:56:11;;;;;;;1.00;1.00;;;;;;;;;;4993045;28;20043;-88
2023/06/03 14:58:39;;;;;;;1.00;1.00;;;;;;;;;;4973866;28;20043;-87
2023/06/03 15:01:06;;;;;;;1.00;1.00;;;;;;;;;;4992186;28;20038;-90